Time;durP1;ratioP1;P1;durP2;ratioP2;P2;SDS_P1;SDS_P2;PMS_P1;PMS_P2;Temp;Humidity;BMP_temperature;BMP_pressure;BME280_temperature;BME280_humidity;BME280_pressure;Samples;Min_cycle;Max_cycle;Signal;HPM_P1;HPM_P2
2023/03/20 00:00:43;;;;;;;15.70;13.40;;;21.80;61.70;;;;;;222394;1256;22647;-45
2023/03/20 00:05:54;;;;;;;16.20;12.40;;;21.90;61.10;;;;;;222215;1255;24315;-48
2023/03/20 00:10:58;;;;;;;21.00;14.10;;;21.90;61.10;;;;;;222293;1258;24210;-55
2023/03/20 00:16:04;;;;;;;18.00;13.70;;;21.90;60.70;;;;;;222395;1260;22542;-53
2023/03/20 00:21:17;;;;;;;17.60;12.70;;;21.90;60.10;;;;;;222256;1263;22530;-56
2023/03/20 00:26:27;;;;;;;16.20;13.40;;;22.00;60.40;;;;;;222172;1255;22527;-53
2023/03/20 00:31:36;;;;;;;17.40;13.70;;;21.90;60.00;;;;;;222114;1262;23274;-53
2023/03/20 00:36:40;;;;;;;15.70;13.00;;;21.90;59.80;;;;;;222260;1263;25417;-53
2023/03/20 00:42:02;;;;;;;17.80;13.20;;;21.90;59.80;;;;;;222249;1256;24215;-54
2023/03/20 00:47:15;;;;;;;14.20;12.70;;;21.80;59.70;;;;;;221985;1262;22560;-53
2023/03/20 00:52:20;;;;;;;18.40;12.70;;;21.80;59.60;;;;;;221905;1258;23146;-54
2023/03/20 00:57:31;;;;;;;15.20;12.60;;;21.90;59.40;;;;;;222214;1254;22508;-51
2023/03/20 01:02:36;;;;;;;17.50;13.40;;;21.80;59.30;;;;;;222275;1253;25222;-52
2023/03/20 01:07:40;;;;;;;14.70;12.10;;;21.90;59.20;;;;;;229793;1262;22352;-54
2023/03/20 01:12:46;;;;;;;18.50;14.00;;;21.90;58.90;;;;;;228879;1259;22639;-51
2023/03/20 01:17:51;;;;;;;19.30;13.00;;;22.00;58.20;;;;;;224318;1265;24252;-53
2023/03/20 01:22:56;;;;;;;14.20;12.40;;;22.00;58.30;;;;;;230082;1262;22492;-53
2023/03/20 01:28:00;;;;;;;13.80;12.00;;;21.90;58.30;;;;;;229856;1257;22930;-52
2023/03/20 01:33:15;;;;;;;15.60;13.00;;;22.10;58.60;;;;;;225074;1264;25379;-52
2023/03/20 01:38:24;;;;;;;16.70;12.10;;;22.50;57.70;;;;;;222308;1262;23134;-56
2023/03/20 01:43:29;;;;;;;15.50;11.90;;;22.60;57.10;;;;;;222421;1262;22531;-54
2023/03/20 01:48:49;;;;;;;12.50;11.10;;;22.90;57.60;;;;;;222208;1262;22794;-53
2023/03/20 01:54:16;;;;;;;14.50;12.40;;;23.00;56.40;;;;;;222274;1262;23018;-53
2023/03/20 01:59:35;;;;;;;13.40;12.00;;;23.10;55.90;;;;;;222140;1265;22521;-54
2023/03/20 02:04:44;;;;;;;15.00;12.50;;;23.20;55.70;;;;;;222064;1250;22494;-52
2023/03/20 02:09:50;;;;;;;13.60;12.00;;;23.30;55.70;;;;;;224002;1265;25496;-53
2023/03/20 02:14:59;;;;;;;12.80;11.20;;;23.40;55.40;;;;;;225606;1264;22530;-53
2023/03/20 02:20:49;;;;;;;12.10;10.60;;;23.30;55.90;;;;;;223523;1267;23878;-53
2023/03/20 02:26:15;;;;;;;14.80;11.20;;;23.50;55.10;;;;;;222191;1255;24325;-55
2023/03/20 02:31:35;;;;;;;13.80;11.60;;;23.50;55.10;;;;;;221977;1265;22525;-53
2023/03/20 02:36:49;;;;;;;13.40;11.10;;;23.50;55.30;;;;;;222130;1255;23219;-52
2023/03/20 02:42:07;;;;;;;14.20;10.80;;;23.60;55.00;;;;;;222220;1254;22533;-52
2023/03/20 02:47:40;;;;;;;12.20;11.00;;;23.50;55.30;;;;;;221920;1260;22641;-53
2023/03/20 02:53:27;;;;;;;14.50;10.80;;;23.40;55.30;;;;;;222183;1259;22641;-54
2023/03/20 02:58:31;;;;;;;;;;;23.30;55.50;;;;;;222078;1254;22493;-54
2023/03/20 03:03:45;;;;;;;12.30;11.00;;;23.20;55.70;;;;;;222154;1255;22507;-53
2023/03/20 03:08:58;;;;;;;11.80;10.50;;;23.10;55.60;;;;;;222259;1262;22609;-50
2023/03/20 03:14:05;;;;;;;11.90;10.50;;;23.10;55.70;;;;;;222259;1254;22532;-53
2023/03/20 03:19:17;;;;;;;11.90;10.10;;;23.10;55.90;;;;;;222197;1264;22633;-54
2023/03/20 03:24:30;;;;;;;12.00;10.60;;;23.10;55.90;;;;;;222305;1262;23001;-53
2023/03/20 03:29:54;;;;;;;11.90;10.50;;;23.00;56.00;;;;;;222204;1261;22603;-51
2023/03/20 03:35:00;;;;;;;14.10;11.70;;;23.00;56.50;;;;;;222247;1260;26636;-53
2023/03/20 03:40:19;;;;;;;12.20;10.50;;;22.90;56.70;;;;;;222083;1264;22525;-53
2023/03/20 03:45:37;;;;;;;11.30;10.20;;;22.70;57.10;;;;;;222063;1254;22608;-55
2023/03/20 03:50:47;;;;;;;11.40;10.20;;;22.70;56.80;;;;;;222121;1264;24227;-54
2023/03/20 03:55:56;;;;;;;10.70;9.60;;;22.60;57.00;;;;;;222321;1264;22653;-55
2023/03/20 04:01:03;;;;;;;11.70;9.80;;;22.60;56.80;;;;;;222352;1255;25464;-55
2023/03/20 04:06:14;;;;;;;11.60;9.90;;;22.60;57.10;;;;;;222663;1263;24059;-52
2023/03/20 04:11:23;;;;;;;10.90;9.80;;;22.50;57.00;;;;;;222269;1254;22513;-55
2023/03/20 04:16:27;;;;;;;10.70;9.60;;;22.50;56.90;;;;;;222085;1255;25351;-53
2023/03/20 04:21:31;;;;;;;10.90;9.80;;;22.50;57.20;;;;;;222007;1254;24344;-53
2023/03/20 04:26:35;;;;;;;11.10;9.80;;;22.40;57.00;;;;;;222269;1264;24197;-52
2023/03/20 04:31:40;;;;;;;10.90;9.80;;;22.40;56.90;;;;;;222261;1262;25330;-54
2023/03/20 04:37:07;;;;;;;9.80;8.80;;;22.40;56.90;;;;;;221922;1264;22587;-56
2023/03/20 04:42:49;;;;;;;11.00;9.80;;;22.40;56.90;;;;;;222058;1251;23943;-54
2023/03/20 04:47:54;;;;;;;10.60;9.50;;;22.30;56.90;;;;;;222262;1264;22517;-51
2023/03/20 04:52:59;;;;;;;11.00;9.80;;;22.30;56.90;;;;;;222333;1248;22528;-52
2023/03/20 04:58:04;;;;;;;10.50;9.40;;;22.30;57.10;;;;;;222143;1257;22635;-53
2023/03/20 05:03:08;;;;;;;11.00;9.90;;;22.20;57.10;;;;;;222212;1264;25211;-56
2023/03/20 05:08:12;;;;;;;10.90;8.80;;;22.20;57.50;;;;;;222085;1254;22535;-55
2023/03/20 05:13:18;;;;;;;9.50;8.50;;;22.20;57.30;;;;;;222347;1254;22929;-55
2023/03/20 05:18:36;;;;;;;9.90;8.90;;;22.10;57.30;;;;;;222180;1254;22522;-53
2023/03/20 05:23:40;;;;;;;10.70;9.00;;;22.10;57.30;;;;;;222240;1247;22659;-54
2023/03/20 05:28:59;;;;;;;9.70;8.70;;;22.10;57.50;;;;;;222032;1248;24263;-51
2023/03/20 05:34:22;;;;;;;9.70;8.80;;;22.00;57.50;;;;;;222174;1263;23876;-56
2023/03/20 05:39:49;;;;;;;11.50;9.50;;;22.10;57.50;;;;;;222070;1267;23651;-53
2023/03/20 05:44:55;;;;;;;9.10;8.20;;;22.00;57.40;;;;;;222149;1257;22530;-54
2023/03/20 05:50:19;;;;;;;9.10;8.20;;;22.00;57.70;;;;;;222347;1254;24292;-53
2023/03/20 05:55:56;;;;;;;8.80;7.90;;;22.00;57.60;;;;;;222001;1261;25437;-56
2023/03/20 06:01:20;;;;;;;8.90;8.10;;;22.00;57.50;;;;;;221958;1253;24071;-55
2023/03/20 06:06:27;;;;;;;9.00;8.10;;;21.90;57.70;;;;;;222298;1253;22655;-56
2023/03/20 06:11:32;;;;;;;9.00;8.10;;;21.90;57.50;;;;;;222222;1254;22775;-55
2023/03/20 06:16:40;;;;;;;9.30;8.20;;;21.90;57.60;;;;;;222129;1254;25266;-53
2023/03/20 06:21:45;;;;;;;8.60;7.80;;;21.90;58.50;;;;;;222084;1262;22548;-52
2023/03/20 06:26:52;;;;;;;8.70;7.80;;;21.90;57.90;;;;;;221807;1263;231979;-51
2023/03/20 06:31:56;;;;;;;8.90;7.80;;;21.90;58.10;;;;;;224047;1262;22512;-51
2023/03/20 06:37:05;;;;;;;11.50;8.50;;;21.90;58.30;;;;;;225677;1262;22808;-47
2023/03/20 06:42:09;;;;;;;8.20;7.10;;;21.90;58.00;;;;;;222268;1262;24191;-53
2023/03/20 06:47:15;;;;;;;10.70;7.50;;;21.90;58.20;;;;;;222579;1247;25463;-50
2023/03/20 06:52:21;;;;;;;8.50;7.20;;;22.30;57.70;;;;;;222208;1255;22660;-49
2023/03/20 06:57:38;;;;;;;9.10;7.90;;;22.60;56.90;;;;;;222086;1264;23910;-48
2023/03/20 07:02:43;;;;;;;8.00;7.20;;;22.80;56.50;;;;;;222347;1261;25691;-46
2023/03/20 07:07:49;;;;;;;8.30;7.50;;;22.90;56.30;;;;;;221952;1262;22706;-51
2023/03/20 07:12:53;;;;;;;8.20;7.30;;;23.00;56.10;;;;;;222108;1262;22665;-52
2023/03/20 07:17:58;;;;;;;7.20;6.40;;;23.10;56.00;;;;;;222432;1259;24192;-50
2023/03/20 07:23:03;;;;;;;11.10;7.20;;;23.20;55.60;;;;;;222384;1254;22512;-51
2023/03/20 07:28:09;;;;;;;7.70;6.50;;;23.40;55.60;;;;;;222466;1260;22608;-49
2023/03/20 07:33:15;;;;;;;10.80;5.60;;;23.40;55.30;;;;;;222337;1253;22511;-54
2023/03/20 07:38:21;;;;;;;10.20;6.90;;;23.40;55.60;;;;;;222732;1253;22531;-54
2023/03/20 07:43:33;;;;;;;10.40;6.20;;;23.30;55.50;;;;;;222197;1255;22660;-55
2023/03/20 07:49:10;;;;;;;10.70;6.00;;;23.30;56.70;;;;;;221916;1257;22517;-50
2023/03/20 07:54:14;;;;;;;14.90;6.50;;;23.30;56.30;;;;;;222334;1254;22511;-50
2023/03/20 07:59:18;;;;;;;13.80;6.60;;;23.20;56.00;;;;;;222169;1245;24217;-51
2023/03/20 08:04:23;;;;;;;12.70;6.50;;;23.10;56.20;;;;;;222209;1261;25361;-50
2023/03/20 08:09:27;;;;;;;12.00;6.70;;;23.10;56.40;;;;;;222238;1262;22659;-48
2023/03/20 08:14:31;;;;;;;15.30;6.00;;;22.90;56.30;;;;;;222389;1255;22526;-50
2023/03/20 08:19:35;;;;;;;12.20;5.90;;;23.00;56.00;;;;;;222382;1262;22525;-53
2023/03/20 08:24:39;;;;;;;9.40;6.10;;;23.00;56.20;;;;;;222451;1262;25463;-51
2023/03/20 08:29:43;;;;;;;6.50;5.80;;;22.90;56.10;;;;;;222425;1262;22755;-51
2023/03/20 08:34:47;;;;;;;7.30;6.30;;;22.80;56.30;;;;;;222004;1262;24108;-52
2023/03/20 08:39:51;;;;;;;5.50;5.00;;;22.80;56.20;;;;;;221994;1266;22517;-53
2023/03/20 08:44:55;;;;;;;7.00;5.70;;;22.90;56.20;;;;;;222232;1257;24229;-54
2023/03/20 08:50:00;;;;;;;6.50;5.90;;;22.90;56.20;;;;;;222440;1262;22511;-52
2023/03/20 08:55:06;;;;;;;7.00;5.60;;;22.80;55.90;;;;;;222120;1263;22598;-51
2023/03/20 09:00:13;;;;;;;10.20;5.10;;;22.80;56.30;;;;;;222267;1262;24201;-49
2023/03/20 09:05:17;;;;;;;6.00;5.10;;;22.60;56.30;;;;;;222264;1264;25439;-50
2023/03/20 09:10:21;;;;;;;6.00;5.10;;;22.50;56.60;;;;;;222159;1262;22935;-50
2023/03/20 09:15:25;;;;;;;6.40;5.80;;;22.50;56.60;;;;;;222117;1264;25319;-49
2023/03/20 09:20:29;;;;;;;5.40;4.90;;;22.50;56.50;;;;;;222216;1269;25540;-52
2023/03/20 09:25:33;;;;;;;7.00;5.30;;;22.40;56.80;;;;;;222070;1265;22782;-51
2023/03/20 09:30:38;;;;;;;6.60;5.40;;;22.40;56.80;;;;;;222388;1269;22559;-54
2023/03/20 09:35:42;;;;;;;6.10;5.50;;;22.40;56.70;;;;;;222254;1262;22580;-50
2023/03/20 09:40:58;;;;;;;5.80;5.30;;;22.30;56.90;;;;;;222303;1262;24314;-53
2023/03/20 09:46:14;;;;;;;7.20;4.80;;;22.30;56.40;;;;;;222033;1261;22831;-51
2023/03/20 09:51:43;;;;;;;5.30;4.80;;;22.30;56.80;;;;;;222272;1262;22634;-54
2023/03/20 09:56:49;;;;;;;5.60;5.10;;;22.20;57.30;;;;;;222280;1255;25034;-54
2023/03/20 10:02:02;;;;;;;5.60;4.50;;;22.20;56.90;;;;;;222037;1264;25383;-56
2023/03/20 10:07:09;;;;;;;5.50;4.80;;;22.20;57.10;;;;;;222367;1261;22650;-53
2023/03/20 10:12:13;;;;;;;6.30;5.00;;;22.20;57.10;;;;;;222332;1263;24251;-59
2023/03/20 10:17:47;;;;;;;4.90;4.40;;;22.20;57.10;;;;;;222438;1262;22640;-55
2023/03/20 10:23:06;;;;;;;5.80;5.20;;;22.20;57.00;;;;;;222388;1263;25389;-57
2023/03/20 10:28:20;;;;;;;7.80;5.30;;;22.20;57.20;;;;;;222029;1264;22763;-50
2023/03/20 10:33:54;;;;;;;5.10;4.70;;;22.30;57.00;;;;;;222335;1262;22591;-54
2023/03/20 10:39:08;;;;;;;4.60;4.20;;;22.40;57.50;;;;;;222244;1262;22943;-54
2023/03/20 10:44:19;;;;;;;5.50;4.90;;;22.40;57.30;;;;;;222441;1262;23909;-56
2023/03/20 10:49:37;;;;;;;5.50;4.90;;;22.30;57.30;;;;;;222214;1269;25570;-54
2023/03/20 10:54:45;;;;;;;5.50;4.70;;;22.30;57.40;;;;;;222481;1262;24197;-56
2023/03/20 10:59:51;;;;;;;5.00;4.60;;;22.40;57.40;;;;;;222452;1262;22987;-55
2023/03/20 11:04:56;;;;;;;5.30;4.80;;;22.40;57.60;;;;;;222380;1265;22736;-52
2023/03/20 11:10:03;;;;;;;4.70;4.20;;;22.40;57.00;;;;;;222260;1251;24197;-53
2023/03/20 11:15:32;;;;;;;6.20;4.80;;;22.40;57.00;;;;;;222535;1253;25342;-55
2023/03/20 11:20:50;;;;;;;4.50;4.10;;;22.40;57.00;;;;;;222372;1262;24177;-56
2023/03/20 11:25:59;;;;;;;5.10;4.60;;;22.40;56.80;;;;;;222508;1262;22687;-55
2023/03/20 11:31:12;;;;;;;4.60;4.20;;;22.40;56.80;;;;;;222407;1262;24885;-55
2023/03/20 11:36:28;;;;;;;4.70;4.30;;;22.40;56.90;;;;;;222643;1269;23887;-54
2023/03/20 11:41:33;;;;;;;4.90;4.40;;;22.40;56.80;;;;;;222219;1263;25336;-53
2023/03/20 11:46:37;;;;;;;4.90;4.50;;;22.40;56.90;;;;;;222339;1265;22597;-50
2023/03/20 11:51:41;;;;;;;5.00;4.20;;;22.40;56.90;;;;;;222412;1263;25595;-50
2023/03/20 11:56:59;;;;;;;4.40;4.00;;;22.40;56.90;;;;;;222652;1247;24209;-50
2023/03/20 12:02:21;;;;;;;4.50;4.10;;;22.40;56.90;;;;;;222447;1265;22776;-53
2023/03/20 12:07:32;;;;;;;4.60;4.20;;;22.40;56.90;;;;;;222741;1262;22568;-55
2023/03/20 12:12:49;;;;;;;6.60;4.20;;;22.40;56.80;;;;;;222651;1247;24090;-55
2023/03/20 12:18:06;;;;;;;4.60;4.00;;;22.50;57.00;;;;;;223080;1264;26560;-56
2023/03/20 12:23:22;;;;;;;4.80;4.00;;;22.50;56.90;;;;;;222806;1269;22531;-56
2023/03/20 12:28:57;;;;;;;4.30;3.90;;;22.50;56.80;;;;;;222681;1264;22529;-47
2023/03/20 12:34:19;;;;;;;4.10;3.80;;;22.50;56.70;;;;;;222120;1262;23940;-50
2023/03/20 12:39:28;;;;;;;5.90;4.00;;;22.50;56.50;;;;;;222604;1256;24188;-49
2023/03/20 12:45:02;;;;;;;3.70;3.40;;;22.50;56.50;;;;;;222734;1262;25503;-46
2023/03/20 12:50:32;;;;;;;3.90;3.60;;;22.50;56.70;;;;;;222634;1257;22636;-47
2023/03/20 12:55:51;;;;;;;4.30;3.80;;;22.60;56.60;;;;;;222764;1262;22629;-54
2023/03/20 13:01:02;;;;;;;4.10;3.80;;;22.60;56.90;;;;;;222607;1266;24101;-56
2023/03/20 13:06:09;;;;;;;4.00;3.50;;;22.60;56.50;;;;;;222228;1262;22449;-58
2023/03/20 13:11:47;;;;;;;4.60;4.20;;;22.60;56.30;;;;;;222200;1265;22523;-59
2023/03/20 13:17:20;;;;;;;5.00;3.30;;;22.60;56.30;;;;;;222423;1262;24245;-53
2023/03/20 13:22:45;;;;;;;3.90;3.60;;;22.50;56.60;;;;;;222312;1263;26051;-52
2023/03/20 13:28:15;;;;;;;3.40;3.20;;;22.40;56.40;;;;;;222350;1246;22515;-50
2023/03/20 13:33:31;;;;;;;4.00;3.60;;;22.40;56.50;;;;;;222078;1262;24657;-53
2023/03/20 13:38:41;;;;;;;3.30;3.10;;;22.40;56.40;;;;;;222330;1265;22666;-55
2023/03/20 13:43:56;;;;;;;3.10;2.90;;;22.40;56.40;;;;;;222267;1269;25365;-57
2023/03/20 13:49:24;;;;;;;3.00;2.80;;;22.40;56.50;;;;;;222461;1262;22547;-57
2023/03/20 13:54:52;;;;;;;3.00;2.80;;;22.40;56.40;;;;;;222443;1265;22516;-57
2023/03/20 14:00:17;;;;;;;3.00;2.80;;;22.40;56.40;;;;;;222315;1262;25348;-63
2023/03/20 14:05:25;;;;;;;4.60;3.30;;;22.40;56.10;;;;;;222478;1262;24177;-57
2023/03/20 14:10:33;;;;;;;3.10;2.90;;;22.40;56.30;;;;;;222220;1265;22517;-57
2023/03/20 14:15:43;;;;;;;3.60;2.90;;;22.40;56.40;;;;;;222385;1261;24190;-58
2023/03/20 14:21:03;;;;;;;3.40;3.10;;;22.50;56.70;;;;;;222397;1269;22510;-60
2023/03/20 14:26:17;;;;;;;4.40;3.00;;;22.40;56.80;;;;;;222360;1260;22593;-56
2023/03/20 14:31:31;;;;;;;3.10;2.90;;;22.50;56.60;;;;;;222198;1263;22505;-57
2023/03/20 14:36:44;;;;;;;3.50;3.20;;;22.50;56.60;;;;;;222529;1264;24174;-59
2023/03/20 14:41:56;;;;;;;3.40;3.10;;;22.50;56.20;;;;;;222564;1262;26567;-59
2023/03/20 14:47:07;;;;;;;3.10;2.90;;;22.40;56.30;;;;;;222419;1265;22771;-56
2023/03/20 14:52:32;;;;;;;2.70;2.50;;;22.40;56.40;;;;;;222389;1265;24882;-58
2023/03/20 14:57:36;;;;;;;3.10;2.90;;;22.40;56.20;;;;;;222480;1265;22635;-56
2023/03/20 15:03:07;;;;;;;;;;;22.40;55.90;;;;;;222229;1261;23864;-57
2023/03/20 15:08:34;;;;;;;3.20;2.90;;;22.40;56.00;;;;;;222453;1262;24190;-58
2023/03/20 15:13:40;;;;;;;2.90;2.70;;;22.40;55.90;;;;;;222391;1262;22523;-52
2023/03/20 15:18:49;;;;;;;2.40;2.20;;;22.40;56.10;;;;;;222609;1260;22511;-48
2023/03/20 15:23:53;;;;;;;2.90;2.70;;;22.30;56.20;;;;;;222213;1265;22511;-56
2023/03/20 15:29:00;;;;;;;2.50;2.30;;;22.20;56.50;;;;;;222299;1255;22534;-55
2023/03/20 15:34:10;;;;;;;3.00;2.80;;;22.20;56.30;;;;;;222392;1269;22522;-58
2023/03/20 15:39:17;;;;;;;8.00;4.50;;;22.20;56.00;;;;;;222204;1262;25316;-58
2023/03/20 15:44:22;;;;;;;14.70;7.10;;;22.20;56.30;;;;;;222891;1269;22568;-53
2023/03/20 15:49:30;;;;;;;19.20;6.60;;;22.10;56.80;;;;;;222744;1265;22518;-51
2023/03/20 15:54:36;;;;;;;32.60;13.70;;;22.30;56.50;;;;;;222649;1262;23911;-49
2023/03/20 15:59:41;;;;;;;32.40;12.50;;;22.30;56.80;;;;;;222652;1262;27768;-48
2023/03/20 16:04:50;;;;;;;30.60;13.50;;;22.30;57.10;;;;;;222611;1262;23894;-52
2023/03/20 16:09:54;;;;;;;28.60;13.00;;;22.30;57.90;;;;;;222676;1254;22513;-53
2023/03/20 16:14:59;;;;;;;22.00;11.00;;;22.30;58.30;;;;;;222851;1261;23923;-53
2023/03/20 16:20:04;;;;;;;19.90;10.40;;;22.30;57.80;;;;;;222799;1262;22518;-51
2023/03/20 16:25:13;;;;;;;26.20;10.20;;;22.30;58.00;;;;;;222713;1261;22656;-57
2023/03/20 16:30:20;;;;;;;27.00;12.20;;;22.50;57.50;;;;;;222805;1264;24189;-53
2023/03/20 16:35:36;;;;;;;23.50;10.80;;;22.40;57.60;;;;;;222775;1263;25388;-50
2023/03/20 16:40:41;;;;;;;20.90;10.60;;;22.40;57.10;;;;;;222361;1262;22647;-50
2023/03/20 16:45:51;;;;;;;20.90;10.20;;;22.30;57.30;;;;;;225827;1262;23053;-49
2023/03/20 16:51:25;;;;;;;18.10;9.60;;;22.40;57.30;;;;;;225772;1262;24266;-48
2023/03/20 16:56:38;;;;;;;18.00;9.30;;;22.50;57.00;;;;;;222582;1257;22566;-49
2023/03/20 17:01:46;;;;;;;19.30;9.10;;;22.40;57.20;;;;;;222412;1265;25296;-55
2023/03/20 17:06:58;;;;;;;20.60;9.90;;;22.30;57.60;;;;;;222284;1258;24209;-53
2023/03/20 17:12:16;;;;;;;15.40;7.50;;;22.20;57.60;;;;;;222310;1265;22689;-51
2023/03/20 17:17:23;;;;;;;14.70;7.90;;;22.10;57.80;;;;;;222076;1265;22509;-52
2023/03/20 17:22:29;;;;;;;21.70;9.30;;;22.20;57.30;;;;;;222368;1263;22598;-52
2023/03/20 17:27:36;;;;;;;14.60;8.30;;;22.20;57.30;;;;;;222212;1269;22592;-52
2023/03/20 17:32:41;;;;;;;15.70;7.90;;;22.20;57.60;;;;;;222405;1269;22660;-52
2023/03/20 17:37:47;;;;;;;16.80;7.80;;;22.20;57.70;;;;;;222527;1265;22985;-49
2023/03/20 17:42:53;;;;;;;19.50;7.40;;;22.10;58.10;;;;;;222318;1265;25396;-45
2023/03/20 17:47:58;;;;;;;14.10;7.50;;;22.20;57.70;;;;;;222308;1261;22520;-52
2023/03/20 17:53:03;;;;;;;15.50;7.20;;;22.30;58.00;;;;;;222395;1268;22526;-52
2023/03/20 17:58:14;;;;;;;13.30;6.70;;;22.30;58.30;;;;;;222296;1255;24290;-52
2023/03/20 18:03:20;;;;;;;12.10;6.70;;;22.20;58.80;;;;;;222664;1246;25993;-48
2023/03/20 18:08:25;;;;;;;15.40;6.80;;;22.30;58.60;;;;;;222475;1266;22569;-55
2023/03/20 18:13:31;;;;;;;35.40;16.60;;;22.20;59.40;;;;;;222484;1265;25393;-57
2023/03/20 18:18:38;;;;;;;59.90;22.80;;;22.20;59.00;;;;;;222458;1269;24055;-58
2023/03/20 18:23:45;;;;;;;53.60;25.00;;;22.20;59.00;;;;;;222431;1263;211935;-56
2023/03/20 18:28:53;;;;;;;64.60;26.80;;;22.20;59.00;;;;;;222147;1265;22525;-51
2023/03/20 18:33:58;;;;;;;55.10;24.60;;;22.20;59.10;;;;;;222403;1263;22629;-55
2023/03/20 18:39:05;;;;;;;61.90;26.70;;;22.10;59.80;;;;;;222419;1253;22501;-41
2023/03/20 18:44:14;;;;;;;54.40;23.70;;;22.00;59.30;;;;;;222504;1265;25382;-43
2023/03/20 18:49:22;;;;;;;52.50;22.60;;;22.10;59.20;;;;;;222617;1255;24256;-46
2023/03/20 18:54:29;;;;;;;48.70;20.70;;;22.10;59.30;;;;;;222385;1252;23235;-45
2023/03/20 18:59:38;;;;;;;47.40;19.60;;;22.20;58.70;;;;;;222376;1253;24184;-47
2023/03/20 19:04:44;;;;;;;47.80;19.00;;;22.10;58.80;;;;;;222275;1262;22521;-47
2023/03/20 19:09:51;;;;;;;50.50;21.20;;;22.20;58.40;;;;;;222300;1265;22566;-51
2023/03/20 19:14:56;;;;;;;50.90;21.80;;;22.20;58.60;;;;;;222359;1263;26062;-43
2023/03/20 19:20:06;;;;;;;44.90;21.00;;;22.10;58.80;;;;;;222432;1263;22517;-43
2023/03/20 19:25:12;;;;;;;48.60;21.20;;;22.00;59.10;;;;;;222582;1263;25598;-44
2023/03/20 19:30:36;;;;;;;51.20;21.50;;;22.20;58.60;;;;;;222464;1263;22972;-51
2023/03/20 19:35:48;;;;;;;49.30;19.10;;;22.00;58.80;;;;;;222401;1262;22512;-48
2023/03/20 19:41:10;;;;;;;39.10;18.00;;;22.10;59.30;;;;;;222501;1262;22588;-50
2023/03/20 19:46:18;;;;;;;44.60;18.20;;;22.10;58.60;;;;;;222436;1265;22518;-47
2023/03/20 19:51:47;;;;;;;38.20;17.40;;;22.20;58.90;;;;;;222189;1265;24695;-48
2023/03/20 19:56:53;;;;;;;39.10;16.90;;;22.30;60.20;;;;;;222419;1266;22987;-48
2023/03/20 20:02:01;;;;;;;35.30;17.60;;;22.30;60.10;;;;;;222500;1246;24215;-54
2023/03/20 20:07:07;;;;;;;39.70;17.90;;;22.40;59.50;;;;;;222661;1262;22563;-49
2023/03/20 20:12:37;;;;;;;35.60;16.10;;;22.40;59.30;;;;;;222429;1266;22545;-51
2023/03/20 20:17:46;;;;;;;35.50;16.20;;;22.30;59.60;;;;;;222539;1265;25557;-50
2023/03/20 20:22:52;;;;;;;36.50;16.70;;;22.20;59.80;;;;;;222371;1262;25387;-53
2023/03/20 20:27:58;;;;;;;36.40;16.80;;;22.20;59.70;;;;;;222563;1264;25313;-51
2023/03/20 20:33:07;;;;;;;32.10;16.40;;;22.30;60.50;;;;;;222495;1269;22561;-50
2023/03/20 20:38:14;;;;;;;32.10;15.30;;;22.30;60.30;;;;;;222329;1263;22516;-52
2023/03/20 20:43:40;;;;;;;35.40;14.80;;;22.20;60.20;;;;;;222398;1269;22610;-49
2023/03/20 20:49:10;;;;;;;29.20;14.40;;;22.20;59.50;;;;;;222282;1262;22652;-49
2023/03/20 20:54:25;;;;;;;30.10;14.30;;;22.20;59.30;;;;;;222586;1263;24245;-47
2023/03/20 20:59:31;;;;;;;31.60;13.80;;;22.20;59.60;;;;;;222533;1248;24222;-56
2023/03/20 21:04:41;;;;;;;28.80;13.00;;;22.00;60.20;;;;;;222791;1262;25231;-46
2023/03/20 21:09:47;;;;;;;23.50;12.70;;;22.10;60.00;;;;;;222950;1266;27152;-50
2023/03/20 21:14:52;;;;;;;23.30;11.50;;;22.10;59.10;;;;;;222667;1263;24221;-48
2023/03/20 21:19:57;;;;;;;26.40;12.70;;;22.00;59.00;;;;;;222387;1258;25620;-46
2023/03/20 21:25:04;;;;;;;23.90;11.80;;;21.90;59.50;;;;;;222441;1269;25452;-45
2023/03/20 21:30:18;;;;;;;25.40;13.00;;;21.90;59.50;;;;;;222629;1269;22516;-48
2023/03/20 21:35:25;;;;;;;21.00;10.50;;;21.90;58.90;;;;;;222991;1265;22538;-49
2023/03/20 21:40:29;;;;;;;21.30;11.30;;;21.90;59.10;;;;;;223174;1265;22555;-44
2023/03/20 21:45:35;;;;;;;23.20;11.20;;;21.90;59.10;;;;;;222572;1261;22519;-46
2023/03/20 21:50:59;;;;;;;21.70;11.90;;;21.80;59.20;;;;;;222469;1269;22606;-47
2023/03/20 21:56:23;;;;;;;19.60;10.00;;;21.80;58.70;;;;;;222280;1266;22524;-48
2023/03/20 22:01:47;;;;;;;18.40;10.30;;;21.90;59.10;;;;;;222263;1257;22523;-53
2023/03/20 22:07:11;;;;;;;19.10;10.20;;;21.80;59.80;;;;;;225977;1267;25413;-49
2023/03/20 22:12:36;;;;;;;30.80;9.80;;;21.90;58.50;;;;;;226402;1264;24203;-52
2023/03/20 22:18:01;;;;;;;19.80;9.50;;;22.00;61.10;;;;;;222251;1246;24209;-52
2023/03/20 22:23:27;;;;;;;21.20;9.60;;;22.10;62.30;;;;;;222351;1269;22577;-52
2023/03/20 22:28:51;;;;;;;20.70;9.50;;;22.10;61.30;;;;;;222495;1261;22641;-49
2023/03/20 22:34:17;;;;;;;17.30;9.30;;;22.10;61.70;;;;;;222368;1268;24251;-52
2023/03/20 22:39:41;;;;;;;17.70;9.80;;;22.10;61.40;;;;;;222313;1263;22524;-53
2023/03/20 22:45:06;;;;;;;18.90;9.30;;;22.00;61.10;;;;;;222342;1262;22537;-51
2023/03/20 22:50:11;;;;;;;15.10;8.70;;;21.90;60.70;;;;;;222405;1267;24075;-52
2023/03/20 22:55:16;;;;;;;18.30;8.70;;;21.90;60.80;;;;;;222498;1261;22509;-51
2023/03/20 23:00:21;;;;;;;17.30;9.50;;;21.90;61.00;;;;;;222392;1262;22635;-53
2023/03/20 23:05:25;;;;;;;15.80;8.80;;;21.80;61.20;;;;;;222385;1269;22765;-53
2023/03/20 23:10:30;;;;;;;15.40;8.40;;;21.80;61.10;;;;;;222443;1269;22552;-45
2023/03/20 23:15:36;;;;;;;16.40;8.70;;;21.80;61.20;;;;;;222329;1263;22623;-52
2023/03/20 23:20:40;;;;;;;13.20;8.40;;;21.80;61.90;;;;;;222399;1266;24077;-51
2023/03/20 23:25:45;;;;;;;14.70;8.90;;;21.90;61.30;;;;;;222429;1264;22545;-47
2023/03/20 23:30:49;;;;;;;14.20;9.10;;;21.90;61.90;;;;;;222563;1267;24154;-55
2023/03/20 23:36:13;;;;;;;14.60;8.90;;;22.00;61.50;;;;;;222558;1264;22524;-50
2023/03/20 23:41:36;;;;;;;15.50;8.70;;;22.10;61.70;;;;;;222667;1264;24342;-51
2023/03/20 23:47:00;;;;;;;12.10;8.70;;;22.10;61.70;;;;;;222577;1264;22560;-52
2023/03/20 23:52:17;;;;;;;12.70;8.20;;;22.10;61.80;;;;;;222364;1267;22732;-52
2023/03/20 23:57:21;;;;;;;15.00;8.60;;;22.10;62.30;;;;;;222651;1266;22608;-51
